DLH9WT ESSA-EDDF
Flight info
| Callsign | DLH9WT |
|---|---|
| Flight time | N/A |
| Altitude | 38000 |
| Route | NOSLI N850 ABAMA DCT SONAL DCT POVEL DCT RIMET T157 KERAX KERAX5A |
| Aircraft | A320/M-SDE2E3FGIJ1LORWXYZ/HB1 |
Departure
| Time | 2026-05-05 17:26 |
|---|---|
| Airport | Stockholm-Arlanda Airport (ESSA) |
Arrival
| Time | N/A |
|---|---|
| Airport | Frankfurt Main Airport (EDDF) |
| Time | Latitude | Longitude | Altitude | Speed | Heading |
|---|---|---|---|---|---|
| 2026-05-05 16:25 | 59.65330 | 17.93139 | 112 ft | 0 kts | 251° |
| 2026-05-05 17:10 | 59.65337 | 17.93173 | 112 ft | 4 kts | 251° |
| 2026-05-05 17:10 | 59.65345 | 17.93223 | 110 ft | 3 kts | 251° |
| 2026-05-05 17:10 | 59.65351 | 17.93261 | 110 ft | 4 kts | 285° |
| 2026-05-05 17:11 | 59.65337 | 17.93292 | 108 ft | 3 kts | 345° |
| 2026-05-05 17:11 | 59.65322 | 17.93299 | 110 ft | 0 kts | 346° |
| 2026-05-05 17:14 | 59.65323 | 17.93299 | 112 ft | 0 kts | 346° |
| 2026-05-05 17:15 | 59.65339 | 17.93291 | 110 ft | 7 kts | 346° |
| 2026-05-05 17:15 | 59.65418 | 17.93251 | 112 ft | 16 kts | 346° |
| 2026-05-05 17:15 | 59.65504 | 17.93149 | 112 ft | 13 kts | 297° |
| 2026-05-05 17:16 | 59.65487 | 17.92971 | 110 ft | 14 kts | 252° |
| 2026-05-05 17:16 | 59.65451 | 17.92779 | 112 ft | 16 kts | 246° |
| 2026-05-05 17:16 | 59.65386 | 17.92588 | 111 ft | 18 kts | 229° |
| 2026-05-05 17:16 | 59.65285 | 17.92442 | 109 ft | 18 kts | 207° |
| 2026-05-05 17:17 | 59.65172 | 17.92373 | 112 ft | 16 kts | 192° |
| 2026-05-05 17:17 | 59.65069 | 17.92336 | 112 ft | 14 kts | 191° |
| 2026-05-05 17:17 | 59.64977 | 17.92302 | 112 ft | 13 kts | 190° |
| 2026-05-05 17:17 | 59.64896 | 17.92273 | 112 ft | 11 kts | 190° |
| 2026-05-05 17:18 | 59.64825 | 17.92248 | 112 ft | 10 kts | 190° |
| 2026-05-05 17:18 | 59.64730 | 17.92214 | 112 ft | 18 kts | 189° |
| 2026-05-05 17:18 | 59.64588 | 17.92162 | 112 ft | 20 kts | 190° |
| 2026-05-05 17:18 | 59.64471 | 17.92120 | 113 ft | 15 kts | 189° |
| 2026-05-05 17:19 | 59.64395 | 17.92092 | 114 ft | 9 kts | 191° |
| 2026-05-05 17:19 | 59.64341 | 17.92057 | 114 ft | 7 kts | 222° |
| 2026-05-05 17:19 | 59.64334 | 17.91939 | 112 ft | 12 kts | 257° |
| 2026-05-05 17:19 | 59.64246 | 17.91873 | 114 ft | 14 kts | 189° |
| 2026-05-05 17:20 | 59.64155 | 17.91838 | 114 ft | 12 kts | 191° |
| 2026-05-05 17:20 | 59.64075 | 17.91810 | 114 ft | 11 kts | 190° |
| 2026-05-05 17:20 | 59.63997 | 17.91782 | 112 ft | 11 kts | 191° |
| 2026-05-05 17:20 | 59.63917 | 17.91753 | 110 ft | 12 kts | 190° |
| 2026-05-05 17:21 | 59.63837 | 17.91700 | 108 ft | 12 kts | 211° |
| 2026-05-05 17:21 | 59.63781 | 17.91605 | 107 ft | 7 kts | 220° |
| 2026-05-05 17:21 | 59.63772 | 17.91590 | 106 ft | 1 kts | 219° |
| 2026-05-05 17:22 | 59.63759 | 17.91569 | 107 ft | 6 kts | 219° |
| 2026-05-05 17:22 | 59.63726 | 17.91451 | 108 ft | 11 kts | 276° |
| 2026-05-05 17:22 | 59.63742 | 17.91337 | 110 ft | 4 kts | 296° |
| 2026-05-05 17:22 | 59.63754 | 17.91335 | 110 ft | 1 kts | 10° |
| 2026-05-05 17:25 | 59.63775 | 17.91342 | 110 ft | 13 kts | 10° |
| 2026-05-05 17:25 | 59.63951 | 17.91402 | 110 ft | 64 kts | 10° |
| 2026-05-05 17:25 | 59.64919 | 17.91752 | 107 ft | 144 kts | 10° |
| 2026-05-05 17:25 | 59.65959 | 17.92147 | 638 ft | 153 kts | 5° |
| 2026-05-05 17:26 | 59.67002 | 17.92525 | 1409 ft | 153 kts | 5° |
| 2026-05-05 17:26 | 59.68110 | 17.92803 | 1844 ft | 170 kts | 352° |
| 2026-05-05 17:26 | 59.69233 | 17.91887 | 2161 ft | 187 kts | 316° |
| 2026-05-05 17:26 | 59.69861 | 17.89595 | 2592 ft | 198 kts | 278° |
| 2026-05-05 17:27 | 59.69727 | 17.86874 | 2985 ft | 201 kts | 261° |
| 2026-05-05 17:27 | 59.69452 | 17.84163 | 3463 ft | 201 kts | 260° |
| 2026-05-05 17:27 | 59.69169 | 17.81448 | 3993 ft | 202 kts | 260° |
| 2026-05-05 17:27 | 59.68884 | 17.78725 | 4510 ft | 202 kts | 260° |
| 2026-05-05 17:28 | 59.68508 | 17.76055 | 5048 ft | 208 kts | 254° |
| 2026-05-05 17:28 | 59.68057 | 17.73241 | 5551 ft | 223 kts | 254° |
| 2026-05-05 17:28 | 59.67565 | 17.70165 | 5983 ft | 246 kts | 254° |
| 2026-05-05 17:28 | 59.66830 | 17.67028 | 6667 ft | 259 kts | 235° |
| 2026-05-05 17:29 | 59.65494 | 17.64595 | 7509 ft | 266 kts | 217° |
| 2026-05-05 17:29 | 59.63950 | 17.62529 | 8411 ft | 269 kts | 217° |
| 2026-05-05 17:29 | 59.62390 | 17.60467 | 9317 ft | 272 kts | 217° |
| 2026-05-05 17:29 | 59.60805 | 17.58381 | 10114 ft | 277 kts | 217° |
| 2026-05-05 17:30 | 59.59136 | 17.56184 | 10418 ft | 300 kts | 217° |
| 2026-05-05 17:30 | 59.57380 | 17.53874 | 10953 ft | 311 kts | 217° |
| 2026-05-05 17:30 | 59.55571 | 17.51503 | 11773 ft | 313 kts | 218° |
| 2026-05-05 17:30 | 59.53753 | 17.49128 | 12625 ft | 314 kts | 219° |
| 2026-05-05 17:31 | 59.51929 | 17.46748 | 13459 ft | 315 kts | 219° |
| 2026-05-05 17:31 | 59.50097 | 17.44353 | 14226 ft | 316 kts | 220° |
| 2026-05-05 17:31 | 59.48268 | 17.41966 | 15008 ft | 315 kts | 220° |
| 2026-05-05 17:31 | 59.46447 | 17.39595 | 15820 ft | 313 kts | 221° |
| 2026-05-05 17:32 | 59.44638 | 17.37241 | 16641 ft | 311 kts | 221° |
| 2026-05-05 17:32 | 59.42860 | 17.34940 | 17469 ft | 309 kts | 221° |
| 2026-05-05 17:32 | 59.41068 | 17.32622 | 18258 ft | 308 kts | 222° |
| 2026-05-05 17:32 | 59.39282 | 17.30303 | 18889 ft | 308 kts | 222° |
| 2026-05-05 17:33 | 59.37489 | 17.27970 | 19444 ft | 311 kts | 222° |
| 2026-05-05 17:33 | 59.35680 | 17.25613 | 19987 ft | 314 kts | 222° |
| 2026-05-05 17:33 | 59.33851 | 17.23238 | 20522 ft | 317 kts | 222° |
| 2026-05-05 17:33 | 59.32003 | 17.20848 | 20981 ft | 320 kts | 221° |
| 2026-05-05 17:34 | 59.30127 | 17.18431 | 21419 ft | 325 kts | 221° |
| 2026-05-05 17:34 | 59.28228 | 17.15987 | 21908 ft | 329 kts | 221° |
| 2026-05-05 17:34 | 59.26307 | 17.13519 | 22413 ft | 332 kts | 221° |
| 2026-05-05 17:34 | 59.24396 | 17.11069 | 22922 ft | 334 kts | 221° |
| 2026-05-05 17:35 | 59.22444 | 17.08567 | 23416 ft | 337 kts | 221° |
| 2026-05-05 17:35 | 59.20474 | 17.06049 | 23817 ft | 340 kts | 221° |
| 2026-05-05 17:35 | 59.18490 | 17.03518 | 24234 ft | 342 kts | 221° |
| 2026-05-05 17:35 | 59.16495 | 17.00969 | 24647 ft | 344 kts | 221° |
| 2026-05-05 17:36 | 59.14487 | 16.98402 | 25052 ft | 346 kts | 221° |
| 2026-05-05 17:36 | 59.12467 | 16.95825 | 25438 ft | 348 kts | 220° |
| 2026-05-05 17:36 | 59.10428 | 16.93237 | 25838 ft | 351 kts | 220° |
| 2026-05-05 17:36 | 59.08375 | 16.90638 | 26221 ft | 353 kts | 220° |
| 2026-05-05 17:37 | 59.06343 | 16.88066 | 26548 ft | 355 kts | 220° |
| 2026-05-05 17:37 | 59.04264 | 16.85438 | 26888 ft | 358 kts | 220° |
| 2026-05-05 17:37 | 59.02167 | 16.82789 | 27245 ft | 360 kts | 220° |
| 2026-05-05 17:37 | 59.00060 | 16.80129 | 27620 ft | 363 kts | 220° |
| 2026-05-05 17:38 | 58.97940 | 16.77454 | 27993 ft | 365 kts | 220° |
| 2026-05-05 17:38 | 58.95805 | 16.74760 | 28359 ft | 367 kts | 220° |
| 2026-05-05 17:38 | 58.93657 | 16.72056 | 28750 ft | 369 kts | 220° |
| 2026-05-05 17:38 | 58.91525 | 16.69375 | 29112 ft | 371 kts | 220° |
| 2026-05-05 17:39 | 58.89354 | 16.66649 | 29455 ft | 374 kts | 220° |
| 2026-05-05 17:39 | 58.87164 | 16.63910 | 29796 ft | 376 kts | 220° |
| 2026-05-05 17:39 | 58.84962 | 16.61158 | 30099 ft | 378 kts | 220° |
| 2026-05-05 17:39 | 58.82751 | 16.58397 | 30366 ft | 380 kts | 220° |
| 2026-05-05 17:40 | 58.80523 | 16.55622 | 30549 ft | 382 kts | 219° |
| 2026-05-05 17:40 | 58.78281 | 16.52832 | 30785 ft | 385 kts | 219° |
| 2026-05-05 17:40 | 58.76022 | 16.50027 | 31036 ft | 387 kts | 219° |
| 2026-05-05 17:40 | 58.73754 | 16.47214 | 31293 ft | 389 kts | 219° |
| 2026-05-05 17:41 | 58.71512 | 16.44436 | 31639 ft | 388 kts | 219° |
| 2026-05-05 17:41 | 58.69245 | 16.41636 | 32007 ft | 387 kts | 219° |
| 2026-05-05 17:41 | 58.66977 | 16.38845 | 32373 ft | 386 kts | 219° |
| 2026-05-05 17:41 | 58.64717 | 16.36069 | 32730 ft | 386 kts | 219° |
| 2026-05-05 17:42 | 58.62452 | 16.33299 | 33081 ft | 386 kts | 219° |
| 2026-05-05 17:42 | 58.60191 | 16.30539 | 33416 ft | 385 kts | 219° |
| 2026-05-05 17:42 | 58.57932 | 16.27781 | 33773 ft | 385 kts | 219° |
| 2026-05-05 17:42 | 58.55704 | 16.25066 | 34020 ft | 385 kts | 219° |
| 2026-05-05 17:43 | 58.53441 | 16.22311 | 34247 ft | 386 kts | 219° |
| 2026-05-05 17:43 | 58.51175 | 16.19555 | 34480 ft | 387 kts | 218° |
| 2026-05-05 17:43 | 58.48899 | 16.16793 | 34702 ft | 388 kts | 218° |
| 2026-05-05 17:43 | 58.46622 | 16.14033 | 34925 ft | 389 kts | 218° |
| 2026-05-05 17:44 | 58.44333 | 16.11268 | 35148 ft | 389 kts | 218° |
| 2026-05-05 17:44 | 58.42041 | 16.08506 | 35365 ft | 390 kts | 218° |
| 2026-05-05 17:44 | 58.39747 | 16.05747 | 35575 ft | 391 kts | 218° |
| 2026-05-05 17:44 | 58.37476 | 16.03016 | 35783 ft | 391 kts | 218° |
| 2026-05-05 17:45 | 58.35169 | 16.00249 | 35984 ft | 392 kts | 218° |
| 2026-05-05 17:45 | 58.32856 | 15.97479 | 36195 ft | 393 kts | 218° |
| 2026-05-05 17:45 | 58.30539 | 15.94707 | 36323 ft | 394 kts | 217° |
| 2026-05-05 17:45 | 58.28214 | 15.91927 | 36482 ft | 395 kts | 217° |
| 2026-05-05 17:46 | 58.25884 | 15.89147 | 36680 ft | 396 kts | 217° |
| 2026-05-05 17:46 | 58.23548 | 15.86364 | 36871 ft | 397 kts | 217° |
| 2026-05-05 17:46 | 58.21211 | 15.83582 | 37051 ft | 397 kts | 217° |
| 2026-05-05 17:46 | 58.18898 | 15.80831 | 37241 ft | 398 kts | 217° |
| 2026-05-05 17:47 | 58.16551 | 15.78043 | 37410 ft | 398 kts | 217° |